sensor_id;sensor_type;location;lat;lon;timestamp;pressure;altitude;pressure_sealevel;temperature;humidity
26915;BME280;14480;52.608;13.416;2022-10-16T00:04:24;111587.56;;;-144.42;100.00
26915;BME280;14480;52.608;13.416;2022-10-16T00:09:27;111587.56;;;-144.42;100.00
26915;BME280;14480;52.608;13.416;2022-10-16T00:14:32;111587.56;;;-144.42;100.00
26915;BME280;14480;52.608;13.416;2022-10-16T00:19:36;111587.56;;;-144.42;100.00
26915;BME280;14480;52.608;13.416;2022-10-16T00:25:00;111587.56;;;-144.42;100.00
26915;BME280;14480;52.608;13.416;2022-10-16T00:30:07;111587.56;;;-144.42;100.00
26915;BME280;14480;52.608;13.416;2022-10-16T00:35:13;111587.56;;;-144.42;100.00
26915;BME280;14480;52.608;13.416;2022-10-16T00:40:21;111587.56;;;-144.42;100.00
26915;BME280;14480;52.608;13.416;2022-10-16T00:45:44;111587.56;;;-144.42;100.00
26915;BME280;14480;52.608;13.416;2022-10-16T00:50:47;111587.56;;;-144.42;100.00
26915;BME280;14480;52.608;13.416;2022-10-16T00:55:51;111587.56;;;-144.42;100.00
26915;BME280;14480;52.608;13.416;2022-10-16T01:00:57;111587.56;;;-144.42;100.00
26915;BME280;14480;52.608;13.416;2022-10-16T01:06:05;111587.56;;;-144.42;100.00
26915;BME280;14480;52.608;13.416;2022-10-16T01:11:21;111587.56;;;-144.42;100.00
26915;BME280;14480;52.608;13.416;2022-10-16T01:16:31;111587.56;;;-144.42;100.00
26915;BME280;14480;52.608;13.416;2022-10-16T01:21:39;111587.56;;;-144.42;100.00
26915;BME280;14480;52.608;13.416;2022-10-16T01:26:50;111587.56;;;-144.42;100.00
26915;BME280;14480;52.608;13.416;2022-10-16T01:31:59;111587.56;;;-144.42;100.00
26915;BME280;14480;52.608;13.416;2022-10-16T01:37:04;111587.56;;;-144.42;100.00
26915;BME280;14480;52.608;13.416;2022-10-16T08:41:57;111587.56;;;-144.42;100.00
26915;BME280;14480;52.608;13.416;2022-10-16T08:47:06;111587.56;;;-144.42;100.00
26915;BME280;14480;52.608;13.416;2022-10-16T08:52:13;111587.56;;;-144.42;100.00
26915;BME280;14480;52.608;13.416;2022-10-16T08:57:19;111587.56;;;-144.42;100.00
26915;BME280;14480;52.608;13.416;2022-10-16T09:02:30;111587.56;;;-144.42;100.00
26915;BME280;14480;52.608;13.416;2022-10-16T09:07:35;111587.56;;;-144.42;100.00
26915;BME280;14480;52.608;13.416;2022-10-16T09:12:44;111587.56;;;-144.42;100.00
26915;BME280;14480;52.608;13.416;2022-10-16T09:17:52;111587.56;;;-144.42;100.00
26915;BME280;14480;52.608;13.416;2022-10-16T09:23:16;111587.56;;;-144.42;100.00
26915;BME280;14480;52.608;13.416;2022-10-16T09:28:21;111587.56;;;-144.42;100.00
26915;BME280;14480;52.608;13.416;2022-10-16T09:33:25;111587.56;;;-144.42;100.00
26915;BME280;14480;52.608;13.416;2022-10-16T09:38:34;111587.56;;;-144.42;100.00
26915;BME280;14480;52.608;13.416;2022-10-16T09:43:42;111587.56;;;-144.42;100.00
26915;BME280;14480;52.608;13.416;2022-10-16T09:48:50;111587.56;;;-144.42;100.00
26915;BME280;14480;52.608;13.416;2022-10-16T09:53:55;111587.56;;;-144.42;100.00
26915;BME280;14480;52.608;13.416;2022-10-16T09:59:01;111587.56;;;-144.42;100.00
26915;BME280;14480;52.608;13.416;2022-10-16T10:04:06;111587.56;;;-144.42;100.00
26915;BME280;14480;52.608;13.416;2022-10-16T10:09:20;111587.56;;;-144.42;100.00
26915;BME280;14480;52.608;13.416;2022-10-16T10:14:27;111587.56;;;-144.42;100.00
26915;BME280;14480;52.608;13.416;2022-10-16T10:19:37;111587.56;;;-144.42;100.00
26915;BME280;14480;52.608;13.416;2022-10-16T10:24:44;111587.56;;;-144.42;100.00
26915;BME280;14480;52.608;13.416;2022-10-16T10:29:53;111587.56;;;-144.42;100.00
26915;BME280;14480;52.608;13.416;2022-10-16T10:35:03;111587.56;;;-144.42;100.00
26915;BME280;14480;52.608;13.416;2022-10-16T10:40:12;111587.56;;;-144.42;100.00
26915;BME280;14480;52.608;13.416;2022-10-16T10:45:27;111587.56;;;-144.42;100.00
26915;BME280;14480;52.608;13.416;2022-10-16T10:50:39;111587.56;;;-144.42;100.00
26915;BME280;14480;52.608;13.416;2022-10-16T10:55:44;111587.56;;;-144.42;100.00
26915;BME280;14480;52.608;13.416;2022-10-16T11:06:34;111587.56;;;-144.42;100.00
26915;BME280;14480;52.608;13.416;2022-10-16T11:11:43;111587.56;;;-144.42;100.00
26915;BME280;14480;52.608;13.416;2022-10-16T11:16:53;111587.56;;;-144.42;100.00
26915;BME280;14480;52.608;13.416;2022-10-16T11:22:03;111587.56;;;-144.42;100.00
26915;BME280;14480;52.608;13.416;2022-10-16T11:27:09;111587.56;;;-144.42;100.00
26915;BME280;14480;52.608;13.416;2022-10-16T11:32:18;111587.56;;;-144.42;100.00
26915;BME280;14480;52.608;13.416;2022-10-16T11:37:26;111587.56;;;-144.42;100.00
26915;BME280;14480;52.608;13.416;2022-10-16T11:42:36;111587.56;;;-144.42;100.00
26915;BME280;14480;52.608;13.416;2022-10-16T11:47:41;111587.56;;;-144.42;100.00
26915;BME280;14480;52.608;13.416;2022-10-16T11:53:11;111587.56;;;-144.42;100.00
26915;BME280;14480;52.608;13.416;2022-10-16T11:58:20;111587.56;;;-144.42;100.00
26915;BME280;14480;52.608;13.416;2022-10-16T12:03:27;111587.56;;;-144.42;100.00
26915;BME280;14480;52.608;13.416;2022-10-16T12:08:34;111587.56;;;-144.42;100.00
26915;BME280;14480;52.608;13.416;2022-10-16T12:13:39;111587.56;;;-144.42;100.00
26915;BME280;14480;52.608;13.416;2022-10-16T12:18:43;111587.56;;;-144.42;100.00
26915;BME280;14480;52.608;13.416;2022-10-16T12:23:50;111587.56;;;-144.42;100.00
26915;BME280;14480;52.608;13.416;2022-10-16T12:28:54;111587.56;;;-144.42;100.00
26915;BME280;14480;52.608;13.416;2022-10-16T12:33:59;111587.56;;;-144.42;99.54
26915;BME280;14480;52.608;13.416;2022-10-16T12:39:05;111587.56;;;-144.42;98.24
26915;BME280;14480;52.608;13.416;2022-10-16T12:44:23;111587.56;;;-144.42;100.00
26915;BME280;14480;52.608;13.416;2022-10-16T12:49:32;111587.56;;;-144.42;99.81
26915;BME280;14480;52.608;13.416;2022-10-16T12:54:40;111587.56;;;-144.42;98.63
26915;BME280;14480;52.608;13.416;2022-10-16T12:59:46;111587.56;;;-144.42;97.63
26915;BME280;14480;52.608;13.416;2022-10-16T13:05:06;111587.56;;;-144.42;98.24
26915;BME280;14480;52.608;13.416;2022-10-16T13:10:19;111587.56;;;-144.42;94.59
26915;BME280;14480;52.608;13.416;2022-10-16T13:20:55;111587.56;;;-144.42;94.60
26915;BME280;14480;52.608;13.416;2022-10-16T13:26:07;111587.56;;;-144.42;95.70
26915;BME280;14480;52.608;13.416;2022-10-16T13:31:14;111587.56;;;-144.42;96.31
26915;BME280;14480;52.608;13.416;2022-10-16T13:36:20;111587.56;;;-144.42;93.99
26915;BME280;14480;52.608;13.416;2022-10-16T13:41:25;111587.56;;;-144.42;94.30
26915;BME280;14480;52.608;13.416;2022-10-16T13:46:28;111587.56;;;-144.42;95.51
26915;BME280;14480;52.608;13.416;2022-10-16T13:51:36;111587.56;;;-144.42;93.21
26915;BME280;14480;52.608;13.416;2022-10-16T13:56:41;111587.56;;;-144.42;92.29
26915;BME280;14480;52.608;13.416;2022-10-16T14:01:44;111587.56;;;-144.42;91.80
26915;BME280;14480;52.608;13.416;2022-10-16T14:06:49;111587.56;;;-144.42;91.36
26915;BME280;14480;52.608;13.416;2022-10-16T14:11:55;111587.56;;;-144.42;92.25
26915;BME280;14480;52.608;13.416;2022-10-16T14:16:59;111587.56;;;-144.42;92.73
26915;BME280;14480;52.608;13.416;2022-10-16T14:22:02;111587.56;;;-144.42;92.33
26915;BME280;14480;52.608;13.416;2022-10-16T14:32:34;111587.56;;;-144.42;94.58
26915;BME280;14480;52.608;13.416;2022-10-16T14:37:38;111587.56;;;-144.42;95.68
26915;BME280;14480;52.608;13.416;2022-10-16T14:42:42;111587.56;;;-144.42;97.05
26915;BME280;14480;52.608;13.416;2022-10-16T14:47:49;111587.56;;;-144.42;98.04
26915;BME280;14480;52.608;13.416;2022-10-16T14:52:53;111587.56;;;-144.42;97.17
26915;BME280;14480;52.608;13.416;2022-10-16T14:57:56;111587.56;;;-144.42;98.41
26915;BME280;14480;52.608;13.416;2022-10-16T15:03:03;111587.56;;;-144.42;99.52
26915;BME280;14480;52.608;13.416;2022-10-16T15:08:06;111587.56;;;-144.42;99.50
26915;BME280;14480;52.608;13.416;2022-10-16T15:13:13;111587.56;;;-144.42;99.86
26915;BME280;14480;52.608;13.416;2022-10-16T15:18:18;111587.56;;;-144.42;100.00
26915;BME280;14480;52.608;13.416;2022-10-16T15:23:22;111587.56;;;-144.42;100.00
26915;BME280;14480;52.608;13.416;2022-10-16T15:28:30;111587.56;;;-144.42;100.00
26915;BME280;14480;52.608;13.416;2022-10-16T15:33:35;111587.56;;;-144.42;100.00
26915;BME280;14480;52.608;13.416;2022-10-16T15:38:41;111587.56;;;-144.42;100.00
26915;BME280;14480;52.608;13.416;2022-10-16T15:43:44;111587.56;;;-144.42;100.00
26915;BME280;14480;52.608;13.416;2022-10-16T15:48:49;111587.56;;;-144.42;100.00
26915;BME280;14480;52.608;13.416;2022-10-16T15:53:53;111587.56;;;-144.42;100.00
26915;BME280;14480;52.608;13.416;2022-10-16T15:58:56;111587.56;;;-144.42;100.00
26915;BME280;14480;52.608;13.416;2022-10-16T16:04:01;111587.56;;;-144.42;100.00
26915;BME280;14480;52.608;13.416;2022-10-16T16:09:12;111587.56;;;-144.42;100.00
26915;BME280;14480;52.608;13.416;2022-10-16T16:14:17;111587.56;;;-144.42;100.00
26915;BME280;14480;52.608;13.416;2022-10-16T16:19:22;111587.56;;;-144.42;100.00
26915;BME280;14480;52.608;13.416;2022-10-16T16:24:26;111587.56;;;-144.42;100.00
26915;BME280;14480;52.608;13.416;2022-10-16T16:29:30;111587.56;;;-144.42;100.00
26915;BME280;14480;52.608;13.416;2022-10-16T16:34:35;111587.56;;;-144.42;100.00
26915;BME280;14480;52.608;13.416;2022-10-16T16:39:39;111587.56;;;-144.42;100.00
26915;BME280;14480;52.608;13.416;2022-10-16T16:44:44;111587.56;;;-144.42;100.00
26915;BME280;14480;52.608;13.416;2022-10-16T16:49:50;111587.56;;;-144.42;100.00
26915;BME280;14480;52.608;13.416;2022-10-16T16:54:55;111587.56;;;-144.42;100.00
26915;BME280;14480;52.608;13.416;2022-10-16T16:59:59;111587.56;;;-144.42;100.00
26915;BME280;14480;52.608;13.416;2022-10-16T17:05:07;111587.56;;;-144.42;100.00
26915;BME280;14480;52.608;13.416;2022-10-16T17:10:11;111587.56;;;-144.42;100.00
26915;BME280;14480;52.608;13.416;2022-10-16T17:22:07;111587.56;;;-144.42;100.00
26915;BME280;14480;52.608;13.416;2022-10-16T17:27:10;111587.56;;;-144.42;100.00
26915;BME280;14480;52.608;13.416;2022-10-16T17:32:14;111587.56;;;-144.42;100.00
26915;BME280;14480;52.608;13.416;2022-10-16T17:37:20;111587.56;;;-144.42;100.00
26915;BME280;14480;52.608;13.416;2022-10-16T17:49:30;111587.56;;;-144.42;100.00
26915;BME280;14480;52.608;13.416;2022-10-16T19:23:21;111587.56;;;-144.42;100.00
26915;BME280;14480;52.608;13.416;2022-10-16T19:28:26;111587.56;;;-144.42;100.00
26915;BME280;14480;52.608;13.416;2022-10-16T19:33:30;111587.56;;;-144.42;100.00
26915;BME280;14480;52.608;13.416;2022-10-16T19:38:38;111587.56;;;-144.42;100.00
26915;BME280;14480;52.608;13.416;2022-10-16T19:43:41;111587.56;;;-144.42;100.00
26915;BME280;14480;52.608;13.416;2022-10-16T19:48:45;111587.56;;;-144.42;100.00
26915;BME280;14480;52.608;13.416;2022-10-16T19:53:53;111587.56;;;-144.42;100.00
26915;BME280;14480;52.608;13.416;2022-10-16T20:11:47;111587.56;;;-144.42;100.00
26915;BME280;14480;52.608;13.416;2022-10-16T20:16:52;111587.56;;;-144.42;100.00
26915;BME280;14480;52.608;13.416;2022-10-16T20:22:07;111587.56;;;-144.42;100.00
26915;BME280;14480;52.608;13.416;2022-10-16T20:32:54;111587.56;;;-144.42;100.00
26915;BME280;14480;52.608;13.416;2022-10-16T21:38:42;111587.56;;;-144.42;100.00
26915;BME280;14480;52.608;13.416;2022-10-16T21:50:19;111587.56;;;-144.42;100.00
26915;BME280;14480;52.608;13.416;2022-10-16T21:55:29;111587.56;;;-144.42;100.00
26915;BME280;14480;52.608;13.416;2022-10-16T22:00:48;111587.56;;;-144.42;100.00
26915;BME280;14480;52.608;13.416;2022-10-16T22:05:53;111587.56;;;-144.42;100.00
26915;BME280;14480;52.608;13.416;2022-10-16T22:11:03;111587.56;;;-144.42;100.00
26915;BME280;14480;52.608;13.416;2022-10-16T22:16:06;111587.56;;;-144.42;100.00
26915;BME280;14480;52.608;13.416;2022-10-16T22:21:10;111587.56;;;-144.42;100.00
26915;BME280;14480;52.608;13.416;2022-10-16T22:26:15;111587.56;;;-144.42;100.00
26915;BME280;14480;52.608;13.416;2022-10-16T22:31:18;111587.56;;;-144.42;100.00
26915;BME280;14480;52.608;13.416;2022-10-16T22:36:25;111587.56;;;-144.42;100.00
26915;BME280;14480;52.608;13.416;2022-10-16T22:41:30;111587.56;;;-144.42;100.00
26915;BME280;14480;52.608;13.416;2022-10-16T22:46:36;111587.56;;;-144.42;100.00
26915;BME280;14480;52.608;13.416;2022-10-16T22:51:39;111587.56;;;-144.42;100.00
26915;BME280;14480;52.608;13.416;2022-10-16T22:56:44;111587.56;;;-144.42;100.00
26915;BME280;14480;52.608;13.416;2022-10-16T23:01:48;111587.56;;;-144.42;100.00
26915;BME280;14480;52.608;13.416;2022-10-16T23:06:52;111587.56;;;-144.42;100.00
26915;BME280;14480;52.608;13.416;2022-10-16T23:11:57;111587.56;;;-144.42;100.00
26915;BME280;14480;52.608;13.416;2022-10-16T23:17:00;111587.56;;;-144.42;100.00
